sensor_id;sensor_type;location;lat;lon;timestamp;temperature;humidity
67005;HTU21D;53920;51.094;5.902;2022-12-05T00:01:36;5.37;73.66
67005;HTU21D;53920;51.094;5.902;2022-12-05T00:04:06;5.32;73.84
67005;HTU21D;53920;51.094;5.902;2022-12-05T00:06:34;5.33;73.73
67005;HTU21D;53920;51.094;5.902;2022-12-05T00:09:00;5.35;73.48
67005;HTU21D;53920;51.094;5.902;2022-12-05T00:11:29;5.36;73.44
67005;HTU21D;53920;51.094;5.902;2022-12-05T00:13:57;5.38;73.24
67005;HTU21D;53920;51.094;5.902;2022-12-05T00:16:26;5.37;73.35
67005;HTU21D;53920;51.094;5.902;2022-12-05T00:18:53;5.36;73.57
67005;HTU21D;53920;51.094;5.902;2022-12-05T00:21:26;5.33;73.77
67005;HTU21D;53920;51.094;5.902;2022-12-05T00:23:54;5.34;73.70
67005;HTU21D;53920;51.094;5.902;2022-12-05T00:26:21;5.36;73.80
67005;HTU21D;53920;51.094;5.902;2022-12-05T00:28:48;5.41;73.84
67005;HTU21D;53920;51.094;5.902;2022-12-05T00:31:17;5.43;73.79
67005;HTU21D;53920;51.094;5.902;2022-12-05T00:33:44;5.41;73.83
67005;HTU21D;53920;51.094;5.902;2022-12-05T00:36:14;5.43;73.48
67005;HTU21D;53920;51.094;5.902;2022-12-05T00:38:41;5.48;73.25
67005;HTU21D;53920;51.094;5.902;2022-12-05T00:41:10;5.49;73.29
67005;HTU21D;53920;51.094;5.902;2022-12-05T00:43:37;5.47;73.43
67005;HTU21D;53920;51.094;5.902;2022-12-05T00:46:10;5.48;73.53
67005;HTU21D;53920;51.094;5.902;2022-12-05T00:48:36;5.50;73.30
67005;HTU21D;53920;51.094;5.902;2022-12-05T00:51:09;5.51;73.30
67005;HTU21D;53920;51.094;5.902;2022-12-05T00:53:36;5.53;73.43
67005;HTU21D;53920;51.094;5.902;2022-12-05T00:56:06;5.50;73.52
67005;HTU21D;53920;51.094;5.902;2022-12-05T00:58:32;5.52;73.32
67005;HTU21D;53920;51.094;5.902;2022-12-05T01:01:17;5.54;73.19
67005;HTU21D;53920;51.094;5.902;2022-12-05T01:03:45;5.56;73.13
67005;HTU21D;53920;51.094;5.902;2022-12-05T01:06:14;5.59;73.13
67005;HTU21D;53920;51.094;5.902;2022-12-05T01:08:41;5.61;72.99
67005;HTU21D;53920;51.094;5.902;2022-12-05T01:11:10;5.63;72.84
67005;HTU21D;53920;51.094;5.902;2022-12-05T01:13:36;5.61;72.84
67005;HTU21D;53920;51.094;5.902;2022-12-05T01:16:02;5.61;72.93
67005;HTU21D;53920;51.094;5.902;2022-12-05T01:18:29;5.62;73.04
67005;HTU21D;53920;51.094;5.902;2022-12-05T01:20:55;5.63;72.82
67005;HTU21D;53920;51.094;5.902;2022-12-05T01:23:21;5.61;72.99
67005;HTU21D;53920;51.094;5.902;2022-12-05T01:25:50;5.62;73.04
67005;HTU21D;53920;51.094;5.902;2022-12-05T01:28:17;5.63;72.79
67005;HTU21D;53920;51.094;5.902;2022-12-05T01:30:45;5.61;72.87
67005;HTU21D;53920;51.094;5.902;2022-12-05T01:33:12;5.62;72.80
67005;HTU21D;53920;51.094;5.902;2022-12-05T01:35:39;5.64;73.07
67005;HTU21D;53920;51.094;5.902;2022-12-05T01:38:07;5.61;73.10
67005;HTU21D;53920;51.094;5.902;2022-12-05T01:40:34;5.56;73.26
67005;HTU21D;53920;51.094;5.902;2022-12-05T01:43:09;5.61;73.29
67005;HTU21D;53920;51.094;5.902;2022-12-05T01:45:41;5.59;73.21
67005;HTU21D;53920;51.094;5.902;2022-12-05T01:48:18;5.61;73.08
67005;HTU21D;53920;51.094;5.902;2022-12-05T01:50:48;5.63;73.11
67005;HTU21D;53920;51.094;5.902;2022-12-05T01:53:17;5.65;73.16
67005;HTU21D;53920;51.094;5.902;2022-12-05T01:55:45;5.66;73.08
67005;HTU21D;53920;51.094;5.902;2022-12-05T01:58:12;5.68;73.09
67005;HTU21D;53920;51.094;5.902;2022-12-05T02:00:43;5.69;73.22
67005;HTU21D;53920;51.094;5.902;2022-12-05T02:03:14;5.70;73.09
67005;HTU21D;53920;51.094;5.902;2022-12-05T02:05:41;5.71;73.17
67005;HTU21D;53920;51.094;5.902;2022-12-05T02:08:10;5.71;73.19
67005;HTU21D;53920;51.094;5.902;2022-12-05T02:10:53;5.74;73.00
67005;HTU21D;53920;51.094;5.902;2022-12-05T02:24:45;5.83;72.43
67005;HTU21D;53920;51.094;5.902;2022-12-05T02:30:16;5.80;72.71
67005;HTU21D;53920;51.094;5.902;2022-12-05T02:35:44;5.75;72.89
67005;HTU21D;53920;51.094;5.902;2022-12-05T02:38:34;5.72;73.06
67005;HTU21D;53920;51.094;5.902;2022-12-05T02:41:11;5.69;73.22
67005;HTU21D;53920;51.094;5.902;2022-12-05T02:43:54;5.65;73.32
67005;HTU21D;53920;51.094;5.902;2022-12-05T02:46:26;5.63;73.41
67005;HTU21D;53920;51.094;5.902;2022-12-05T02:48:59;5.64;73.37
67005;HTU21D;53920;51.094;5.902;2022-12-05T02:51:32;5.63;73.49
67005;HTU21D;53920;51.094;5.902;2022-12-05T02:54:04;5.64;73.27
67005;HTU21D;53920;51.094;5.902;2022-12-05T02:56:36;5.67;72.99
67005;HTU21D;53920;51.094;5.902;2022-12-05T02:59:03;5.67;73.06
67005;HTU21D;53920;51.094;5.902;2022-12-05T03:01:30;5.63;73.41
67005;HTU21D;53920;51.094;5.902;2022-12-05T03:04:02;5.64;73.38
67005;HTU21D;53920;51.094;5.902;2022-12-05T03:09:23;5.63;73.43
67005;HTU21D;53920;51.094;5.902;2022-12-05T03:14:43;5.68;73.22
67005;HTU21D;53920;51.094;5.902;2022-12-05T03:17:16;5.68;73.34
67005;HTU21D;53920;51.094;5.902;2022-12-05T03:20:04;5.66;73.23
67005;HTU21D;53920;51.094;5.902;2022-12-05T03:22:39;5.68;73.27
67005;HTU21D;53920;51.094;5.902;2022-12-05T03:25:10;5.70;73.35
67005;HTU21D;53920;51.094;5.902;2022-12-05T03:27:56;5.70;73.42
67005;HTU21D;53920;51.094;5.902;2022-12-05T03:30:30;5.71;73.36
67005;HTU21D;53920;51.094;5.902;2022-12-05T03:35:36;5.69;73.26
67005;HTU21D;53920;51.094;5.902;2022-12-05T03:51:51;5.64;73.60
67005;HTU21D;53920;51.094;5.902;2022-12-05T03:54:55;5.63;73.65
67005;HTU21D;53920;51.094;5.902;2022-12-05T03:57:33;5.61;73.69
67005;HTU21D;53920;51.094;5.902;2022-12-05T04:00:02;5.55;73.74
67005;HTU21D;53920;51.094;5.902;2022-12-05T04:07:47;5.50;74.02
67005;HTU21D;53920;51.094;5.902;2022-12-05T04:10:20;5.51;73.99
67005;HTU21D;53920;51.094;5.902;2022-12-05T04:12:53;5.49;74.18
67005;HTU21D;53920;51.094;5.902;2022-12-05T04:15:28;5.46;74.13
67005;HTU21D;53920;51.094;5.902;2022-12-05T04:18:22;5.39;74.28
67005;HTU21D;53920;51.094;5.902;2022-12-05T04:20:52;5.37;74.47
67005;HTU21D;53920;51.094;5.902;2022-12-05T04:23:37;5.34;74.39
67005;HTU21D;53920;51.094;5.902;2022-12-05T04:26:20;5.32;74.32
67005;HTU21D;53920;51.094;5.902;2022-12-05T04:29:06;5.28;74.67
67005;HTU21D;53920;51.094;5.902;2022-12-05T04:31:41;5.26;74.60
67005;HTU21D;53920;51.094;5.902;2022-12-05T04:34:13;5.25;74.57
67005;HTU21D;53920;51.094;5.902;2022-12-05T04:36:55;5.24;74.76
67005;HTU21D;53920;51.094;5.902;2022-12-05T04:39:34;5.24;74.86
67005;HTU21D;53920;51.094;5.902;2022-12-05T04:42:10;5.19;74.95
67005;HTU21D;53920;51.094;5.902;2022-12-05T04:44:49;5.15;75.12
67005;HTU21D;53920;51.094;5.902;2022-12-05T04:47:21;5.13;75.15
67005;HTU21D;53920;51.094;5.902;2022-12-05T04:49:52;5.12;75.21
67005;HTU21D;53920;51.094;5.902;2022-12-05T04:52:20;5.11;75.15
67005;HTU21D;53920;51.094;5.902;2022-12-05T04:55:08;5.12;75.27
67005;HTU21D;53920;51.094;5.902;2022-12-05T04:58:11;5.11;75.56
67005;HTU21D;53920;51.094;5.902;2022-12-05T05:03:47;5.09;75.67
67005;HTU21D;53920;51.094;5.902;2022-12-05T05:06:15;5.11;75.40
67005;HTU21D;53920;51.094;5.902;2022-12-05T05:09:00;5.10;75.41
67005;HTU21D;53920;51.094;5.902;2022-12-05T05:11:28;5.09;75.49
67005;HTU21D;53920;51.094;5.902;2022-12-05T05:13:55;5.10;75.90
67005;HTU21D;53920;51.094;5.902;2022-12-05T05:16:30;5.09;76.30
67005;HTU21D;53920;51.094;5.902;2022-12-05T05:18:56;5.11;76.31
67005;HTU21D;53920;51.094;5.902;2022-12-05T05:21:28;5.17;76.24
67005;HTU21D;53920;51.094;5.902;2022-12-05T05:23:55;5.17;76.44
67005;HTU21D;53920;51.094;5.902;2022-12-05T05:26:23;5.20;76.46
67005;HTU21D;53920;51.094;5.902;2022-12-05T05:28:50;5.20;76.55
67005;HTU21D;53920;51.094;5.902;2022-12-05T05:31:17;5.23;76.64
67005;HTU21D;53920;51.094;5.902;2022-12-05T05:33:51;5.24;76.53
67005;HTU21D;53920;51.094;5.902;2022-12-05T05:36:18;5.26;76.16
67005;HTU21D;53920;51.094;5.902;2022-12-05T05:38:47;5.23;75.87
67005;HTU21D;53920;51.094;5.902;2022-12-05T05:41:19;5.22;75.71
67005;HTU21D;53920;51.094;5.902;2022-12-05T05:43:46;5.20;75.61
67005;HTU21D;53920;51.094;5.902;2022-12-05T05:46:14;5.16;75.67
67005;HTU21D;53920;51.094;5.902;2022-12-05T05:48:40;5.05;76.20
67005;HTU21D;53920;51.094;5.902;2022-12-05T05:51:09;5.03;76.27
67005;HTU21D;53920;51.094;5.902;2022-12-05T05:53:36;5.02;76.16
67005;HTU21D;53920;51.094;5.902;2022-12-05T05:56:08;5.06;76.14
67005;HTU21D;53920;51.094;5.902;2022-12-05T05:58:35;5.04;76.12
67005;HTU21D;53920;51.094;5.902;2022-12-05T06:01:10;5.04;76.29
67005;HTU21D;53920;51.094;5.902;2022-12-05T06:03:38;5.04;76.30
67005;HTU21D;53920;51.094;5.902;2022-12-05T06:06:08;4.97;76.55
67005;HTU21D;53920;51.094;5.902;2022-12-05T06:08:37;4.93;76.75
67005;HTU21D;53920;51.094;5.902;2022-12-05T06:13:34;4.91;76.74
67005;HTU21D;53920;51.094;5.902;2022-12-05T06:16:00;4.93;76.68
67005;HTU21D;53920;51.094;5.902;2022-12-05T06:18:27;4.93;76.70
67005;HTU21D;53920;51.094;5.902;2022-12-05T06:20:55;4.84;76.73
67005;HTU21D;53920;51.094;5.902;2022-12-05T06:23:23;4.82;76.93
67005;HTU21D;53920;51.094;5.902;2022-12-05T06:25:50;4.80;76.81
67005;HTU21D;53920;51.094;5.902;2022-12-05T06:28:18;4.79;76.75
67005;HTU21D;53920;51.094;5.902;2022-12-05T06:30:45;4.79;76.63
67005;HTU21D;53920;51.094;5.902;2022-12-05T06:33:11;4.79;76.64
67005;HTU21D;53920;51.094;5.902;2022-12-05T06:35:38;4.74;76.91
67005;HTU21D;53920;51.094;5.902;2022-12-05T06:38:05;4.76;77.16
67005;HTU21D;53920;51.094;5.902;2022-12-05T06:40:32;4.78;77.24
67005;HTU21D;53920;51.094;5.902;2022-12-05T06:42:58;4.80;76.98
67005;HTU21D;53920;51.094;5.902;2022-12-05T06:45:24;4.81;76.80
67005;HTU21D;53920;51.094;5.902;2022-12-05T06:47:51;4.77;76.87
67005;HTU21D;53920;51.094;5.902;2022-12-05T06:50:18;4.75;76.98
67005;HTU21D;53920;51.094;5.902;2022-12-05T06:52:44;4.75;76.98
67005;HTU21D;53920;51.094;5.902;2022-12-05T06:55:10;4.76;76.98
67005;HTU21D;53920;51.094;5.902;2022-12-05T06:57:36;4.59;77.50
67005;HTU21D;53920;51.094;5.902;2022-12-05T07:00:04;4.28;78.34
67005;HTU21D;53920;51.094;5.902;2022-12-05T07:02:50;4.15;78.98
67005;HTU21D;53920;51.094;5.902;2022-12-05T07:05:16;4.00;79.33
67005;HTU21D;53920;51.094;5.902;2022-12-05T07:07:43;3.91;79.55
67005;HTU21D;53920;51.094;5.902;2022-12-05T07:10:09;3.84;79.66
67005;HTU21D;53920;51.094;5.902;2022-12-05T07:12:35;3.74;79.89
67005;HTU21D;53920;51.094;5.902;2022-12-05T07:15:01;3.71;79.94
67005;HTU21D;53920;51.094;5.902;2022-12-05T07:17:27;3.65;80.26
67005;HTU21D;53920;51.094;5.902;2022-12-05T07:19:53;3.68;80.30
67005;HTU21D;53920;51.094;5.902;2022-12-05T07:22:21;3.71;80.11
67005;HTU21D;53920;51.094;5.902;2022-12-05T07:24:47;3.71;80.14
67005;HTU21D;53920;51.094;5.902;2022-12-05T07:27:14;3.76;80.04
67005;HTU21D;53920;51.094;5.902;2022-12-05T07:29:40;3.82;79.80
67005;HTU21D;53920;51.094;5.902;2022-12-05T07:32:06;3.91;79.30
67005;HTU21D;53920;51.094;5.902;2022-12-05T07:34:32;3.98;79.01
67005;HTU21D;53920;51.094;5.902;2022-12-05T07:36:59;4.04;78.55
67005;HTU21D;53920;51.094;5.902;2022-12-05T07:39:25;4.10;78.40
67005;HTU21D;53920;51.094;5.902;2022-12-05T07:41:51;4.12;78.40
67005;HTU21D;53920;51.094;5.902;2022-12-05T07:44:17;4.12;78.31
67005;HTU21D;53920;51.094;5.902;2022-12-05T07:46:44;4.02;78.88
67005;HTU21D;53920;51.094;5.902;2022-12-05T07:49:10;3.95;79.12
67005;HTU21D;53920;51.094;5.902;2022-12-05T07:51:36;3.93;79.11
67005;HTU21D;53920;51.094;5.902;2022-12-05T07:54:02;3.88;79.37
67005;HTU21D;53920;51.094;5.902;2022-12-05T07:56:28;3.91;79.32
67005;HTU21D;53920;51.094;5.902;2022-12-05T07:58:54;3.83;79.51
67005;HTU21D;53920;51.094;5.902;2022-12-05T08:01:23;3.82;79.64
67005;HTU21D;53920;51.094;5.902;2022-12-05T08:03:52;3.73;79.87
67005;HTU21D;53920;51.094;5.902;2022-12-05T08:06:24;3.65;80.14
67005;HTU21D;53920;51.094;5.902;2022-12-05T08:08:51;3.65;80.30
67005;HTU21D;53920;51.094;5.902;2022-12-05T08:11:25;3.76;79.93
67005;HTU21D;53920;51.094;5.902;2022-12-05T08:13:52;3.73;79.70
67005;HTU21D;53920;51.094;5.902;2022-12-05T08:16:24;3.64;79.91
67005;HTU21D;53920;51.094;5.902;2022-12-05T08:19:05;3.63;80.04
67005;HTU21D;53920;51.094;5.902;2022-12-05T08:21:33;3.65;80.04
67005;HTU21D;53920;51.094;5.902;2022-12-05T08:23:59;3.70;79.95
67005;HTU21D;53920;51.094;5.902;2022-12-05T08:26:30;3.83;79.56
67005;HTU21D;53920;51.094;5.902;2022-12-05T08:29:09;3.86;79.25
67005;HTU21D;53920;51.094;5.902;2022-12-05T08:31:40;3.91;79.02
67005;HTU21D;53920;51.094;5.902;2022-12-05T08:34:06;3.92;79.08
67005;HTU21D;53920;51.094;5.902;2022-12-05T08:36:32;3.84;79.56
67005;HTU21D;53920;51.094;5.902;2022-12-05T08:39:02;3.87;79.33
67005;HTU21D;53920;51.094;5.902;2022-12-05T08:41:30;3.92;79.17
67005;HTU21D;53920;51.094;5.902;2022-12-05T08:44:02;3.87;79.11
67005;HTU21D;53920;51.094;5.902;2022-12-05T08:46:30;3.90;79.17
67005;HTU21D;53920;51.094;5.902;2022-12-05T08:48:56;3.84;79.53
67005;HTU21D;53920;51.094;5.902;2022-12-05T08:51:22;3.89;79.49
67005;HTU21D;53920;51.094;5.902;2022-12-05T08:53:48;3.93;79.36
67005;HTU21D;53920;51.094;5.902;2022-12-05T08:56:14;3.97;79.30
67005;HTU21D;53920;51.094;5.902;2022-12-05T08:58:42;3.95;79.37
67005;HTU21D;53920;51.094;5.902;2022-12-05T09:01:12;3.99;79.16
67005;HTU21D;53920;51.094;5.902;2022-12-05T09:03:39;3.90;79.39
67005;HTU21D;53920;51.094;5.902;2022-12-05T09:06:11;3.90;79.50
67005;HTU21D;53920;51.094;5.902;2022-12-05T09:08:38;3.90;79.42
67005;HTU21D;53920;51.094;5.902;2022-12-05T09:11:06;3.84;79.61
67005;HTU21D;53920;51.094;5.902;2022-12-05T09:13:33;3.84;79.59
67005;HTU21D;53920;51.094;5.902;2022-12-05T09:16:05;3.86;79.46
67005;HTU21D;53920;51.094;5.902;2022-12-05T09:18:31;3.88;79.30
67005;HTU21D;53920;51.094;5.902;2022-12-05T09:20:57;3.97;78.98
67005;HTU21D;53920;51.094;5.902;2022-12-05T09:23:23;4.06;78.66
67005;HTU21D;53920;51.094;5.902;2022-12-05T09:25:53;4.13;78.37
67005;HTU21D;53920;51.094;5.902;2022-12-05T09:28:22;4.18;78.17
67005;HTU21D;53920;51.094;5.902;2022-12-05T09:31:00;4.19;78.28
67005;HTU21D;53920;51.094;5.902;2022-12-05T09:33:27;4.17;78.28
67005;HTU21D;53920;51.094;5.902;2022-12-05T09:35:55;4.23;77.84
67005;HTU21D;53920;51.094;5.902;2022-12-05T09:38:21;4.29;77.45
67005;HTU21D;53920;51.094;5.902;2022-12-05T09:49:02;4.41;77.01
67005;HTU21D;53920;51.094;5.902;2022-12-05T09:51:31;4.41;76.90
67005;HTU21D;53920;51.094;5.902;2022-12-05T09:53:57;4.45;76.76
67005;HTU21D;53920;51.094;5.902;2022-12-05T09:56:29;4.34;77.09
67005;HTU21D;53920;51.094;5.902;2022-12-05T09:58:57;4.26;77.37
67005;HTU21D;53920;51.094;5.902;2022-12-05T10:15:39;4.46;76.55
67005;HTU21D;53920;51.094;5.902;2022-12-05T10:18:18;4.54;76.14
67005;HTU21D;53920;51.094;5.902;2022-12-05T10:21:11;4.53;76.05
67005;HTU21D;53920;51.094;5.902;2022-12-05T10:23:55;4.46;76.37
67005;HTU21D;53920;51.094;5.902;2022-12-05T10:26:27;4.47;76.57
67005;HTU21D;53920;51.094;5.902;2022-12-05T10:31:26;4.59;76.12
67005;HTU21D;53920;51.094;5.902;2022-12-05T10:34:04;4.69;76.13
67005;HTU21D;53920;51.094;5.902;2022-12-05T10:36:33;4.81;75.60
67005;HTU21D;53920;51.094;5.902;2022-12-05T10:38:59;4.86;75.64
67005;HTU21D;53920;51.094;5.902;2022-12-05T10:41:27;4.91;75.91
67005;HTU21D;53920;51.094;5.902;2022-12-05T10:43:56;4.86;75.82
67005;HTU21D;53920;51.094;5.902;2022-12-05T10:46:23;4.90;75.40
67005;HTU21D;53920;51.094;5.902;2022-12-05T10:48:49;4.79;75.93
67005;HTU21D;53920;51.094;5.902;2022-12-05T10:51:17;4.82;75.41
67005;HTU21D;53920;51.094;5.902;2022-12-05T10:53:49;4.83;75.24
67005;HTU21D;53920;51.094;5.902;2022-12-05T10:56:48;4.82;75.54
67005;HTU21D;53920;51.094;5.902;2022-12-05T10:59:18;4.82;75.60
67005;HTU21D;53920;51.094;5.902;2022-12-05T11:01:48;4.84;75.83
67005;HTU21D;53920;51.094;5.902;2022-12-05T11:04:30;4.80;76.05
67005;HTU21D;53920;51.094;5.902;2022-12-05T11:07:00;4.84;76.39
67005;HTU21D;53920;51.094;5.902;2022-12-05T11:09:32;4.94;76.27
67005;HTU21D;53920;51.094;5.902;2022-12-05T11:17:34;5.02;76.32
67005;HTU21D;53920;51.094;5.902;2022-12-05T11:20:27;5.05;76.33
67005;HTU21D;53920;51.094;5.902;2022-12-05T11:22:53;5.07;76.32
67005;HTU21D;53920;51.094;5.902;2022-12-05T11:25:32;5.12;75.48
67005;HTU21D;53920;51.094;5.902;2022-12-05T11:28:21;5.18;75.54
67005;HTU21D;53920;51.094;5.902;2022-12-05T11:33:41;5.15;75.92
67005;HTU21D;53920;51.094;5.902;2022-12-05T11:36:19;5.10;76.02
67005;HTU21D;53920;51.094;5.902;2022-12-05T11:38:47;5.04;76.15
67005;HTU21D;53920;51.094;5.902;2022-12-05T11:44:20;4.98;76.27
67005;HTU21D;53920;51.094;5.902;2022-12-05T11:52:26;5.24;75.76
67005;HTU21D;53920;51.094;5.902;2022-12-05T12:00:49;5.48;74.60
67005;HTU21D;53920;51.094;5.902;2022-12-05T12:03:41;5.50;74.50
67005;HTU21D;53920;51.094;5.902;2022-12-05T12:10:01;5.47;74.41
67005;HTU21D;53920;51.094;5.902;2022-12-05T12:12:50;5.43;74.78
67005;HTU21D;53920;51.094;5.902;2022-12-05T12:26:12;5.35;74.57
67005;HTU21D;53920;51.094;5.902;2022-12-05T12:29:25;5.32;74.71
67005;HTU21D;53920;51.094;5.902;2022-12-05T12:34:28;5.21;74.80
67005;HTU21D;53920;51.094;5.902;2022-12-05T12:37:23;5.11;75.13
67005;HTU21D;53920;51.094;5.902;2022-12-05T12:40:12;5.05;75.17
67005;HTU21D;53920;51.094;5.902;2022-12-05T12:45:34;4.98;75.06
67005;HTU21D;53920;51.094;5.902;2022-12-05T12:50:41;4.92;74.99
67005;HTU21D;53920;51.094;5.902;2022-12-05T12:58:57;4.81;74.91
67005;HTU21D;53920;51.094;5.902;2022-12-05T13:02:07;4.79;74.59
67005;HTU21D;53920;51.094;5.902;2022-12-05T13:04:32;4.79;74.29
67005;HTU21D;53920;51.094;5.902;2022-12-05T13:07:23;4.79;74.13
67005;HTU21D;53920;51.094;5.902;2022-12-05T13:09:57;4.78;73.96
67005;HTU21D;53920;51.094;5.902;2022-12-05T13:12:30;4.78;74.06
67005;HTU21D;53920;51.094;5.902;2022-12-05T13:15:09;4.77;74.15
67005;HTU21D;53920;51.094;5.902;2022-12-05T13:17:42;4.75;74.12
67005;HTU21D;53920;51.094;5.902;2022-12-05T13:20:21;4.73;74.23
67005;HTU21D;53920;51.094;5.902;2022-12-05T13:22:49;4.74;74.38
67005;HTU21D;53920;51.094;5.902;2022-12-05T13:25:20;4.73;74.47
67005;HTU21D;53920;51.094;5.902;2022-12-05T13:28:02;4.72;74.99
67005;HTU21D;53920;51.094;5.902;2022-12-05T13:30:29;4.68;75.18
67005;HTU21D;53920;51.094;5.902;2022-12-05T13:32:57;4.72;75.27
67005;HTU21D;53920;51.094;5.902;2022-12-05T13:35:34;4.72;75.19
67005;HTU21D;53920;51.094;5.902;2022-12-05T13:38:27;4.74;74.81
67005;HTU21D;53920;51.094;5.902;2022-12-05T13:41:13;4.62;74.60
67005;HTU21D;53920;51.094;5.902;2022-12-05T13:44:01;4.56;74.76
67005;HTU21D;53920;51.094;5.902;2022-12-05T13:46:32;4.53;74.48
67005;HTU21D;53920;51.094;5.902;2022-12-05T13:49:12;4.51;74.04
67005;HTU21D;53920;51.094;5.902;2022-12-05T13:51:42;4.43;74.34
67005;HTU21D;53920;51.094;5.902;2022-12-05T13:54:17;4.34;74.57
67005;HTU21D;53920;51.094;5.902;2022-12-05T13:56:55;4.30;74.55
67005;HTU21D;53920;51.094;5.902;2022-12-05T14:10:15;4.33;75.68
67005;HTU21D;53920;51.094;5.902;2022-12-05T14:12:48;4.31;76.07
67005;HTU21D;53920;51.094;5.902;2022-12-05T14:15:33;4.26;76.17
67005;HTU21D;53920;51.094;5.902;2022-12-05T14:26:45;4.06;76.24
67005;HTU21D;53920;51.094;5.902;2022-12-05T14:30:10;4.02;76.32
67005;HTU21D;53920;51.094;5.902;2022-12-05T14:32:34;4.00;76.49
67005;HTU21D;53920;51.094;5.902;2022-12-05T14:35:25;3.99;76.56
67005;HTU21D;53920;51.094;5.902;2022-12-05T14:38:06;4.03;76.61
67005;HTU21D;53920;51.094;5.902;2022-12-05T14:40:42;4.03;76.65
67005;HTU21D;53920;51.094;5.902;2022-12-05T14:43:25;3.98;76.97
67005;HTU21D;53920;51.094;5.902;2022-12-05T14:46:04;4.02;77.21
67005;HTU21D;53920;51.094;5.902;2022-12-05T14:48:34;4.00;77.31
67005;HTU21D;53920;51.094;5.902;2022-12-05T14:56:34;4.03;77.37
67005;HTU21D;53920;51.094;5.902;2022-12-05T15:01:50;3.97;77.47
67005;HTU21D;53920;51.094;5.902;2022-12-05T15:04:35;3.95;77.66
67005;HTU21D;53920;51.094;5.902;2022-12-05T15:07:19;4.00;77.75
67005;HTU21D;53920;51.094;5.902;2022-12-05T15:09:55;4.03;76.99
67005;HTU21D;53920;51.094;5.902;2022-12-05T15:12:37;4.03;76.88
67005;HTU21D;53920;51.094;5.902;2022-12-05T15:15:20;3.99;76.95
67005;HTU21D;53920;51.094;5.902;2022-12-05T15:18:23;3.97;77.21
67005;HTU21D;53920;51.094;5.902;2022-12-05T15:21:08;3.93;77.39
67005;HTU21D;53920;51.094;5.902;2022-12-05T15:23:47;3.91;77.42
67005;HTU21D;53920;51.094;5.902;2022-12-05T15:26:21;3.88;77.29
67005;HTU21D;53920;51.094;5.902;2022-12-05T15:29:01;3.91;77.10
67005;HTU21D;53920;51.094;5.902;2022-12-05T15:31:31;3.91;77.18
67005;HTU21D;53920;51.094;5.902;2022-12-05T15:37:00;3.90;76.68
67005;HTU21D;53920;51.094;5.902;2022-12-05T15:39:28;3.89;76.94
67005;HTU21D;53920;51.094;5.902;2022-12-05T15:42:15;3.85;76.92
67005;HTU21D;53920;51.094;5.902;2022-12-05T15:44:41;3.84;76.93
67005;HTU21D;53920;51.094;5.902;2022-12-05T15:47:25;3.76;77.08
67005;HTU21D;53920;51.094;5.902;2022-12-05T15:49:51;3.77;76.70
67005;HTU21D;53920;51.094;5.902;2022-12-05T15:58:02;3.63;76.53
67005;HTU21D;53920;51.094;5.902;2022-12-05T16:00:36;3.60;76.53
67005;HTU21D;53920;51.094;5.902;2022-12-05T16:03:21;3.46;76.98
67005;HTU21D;53920;51.094;5.902;2022-12-05T16:05:59;3.32;77.54
67005;HTU21D;53920;51.094;5.902;2022-12-05T16:08:26;3.25;78.00
67005;HTU21D;53920;51.094;5.902;2022-12-05T16:11:07;3.18;78.27
67005;HTU21D;53920;51.094;5.902;2022-12-05T16:13:34;3.16;78.55
67005;HTU21D;53920;51.094;5.902;2022-12-05T16:16:00;3.11;78.72
67005;HTU21D;53920;51.094;5.902;2022-12-05T16:18:29;3.02;78.85
67005;HTU21D;53920;51.094;5.902;2022-12-05T16:20:56;3.00;79.12
67005;HTU21D;53920;51.094;5.902;2022-12-05T16:23:31;2.99;79.19
67005;HTU21D;53920;51.094;5.902;2022-12-05T16:26:29;2.97;79.18
67005;HTU21D;53920;51.094;5.902;2022-12-05T16:28:58;2.95;79.31
67005;HTU21D;53920;51.094;5.902;2022-12-05T16:31:24;2.97;79.27
67005;HTU21D;53920;51.094;5.902;2022-12-05T16:34:07;2.98;79.28
67005;HTU21D;53920;51.094;5.902;2022-12-05T16:36:51;2.91;79.44
67005;HTU21D;53920;51.094;5.902;2022-12-05T16:39:19;2.89;79.57
67005;HTU21D;53920;51.094;5.902;2022-12-05T16:41:46;2.89;79.62
67005;HTU21D;53920;51.094;5.902;2022-12-05T16:46:54;2.96;79.39
67005;HTU21D;53920;51.094;5.902;2022-12-05T16:54:34;2.89;79.56
67005;HTU21D;53920;51.094;5.902;2022-12-05T16:57:01;2.88;79.62
67005;HTU21D;53920;51.094;5.902;2022-12-05T16:59:36;2.88;79.74
67005;HTU21D;53920;51.094;5.902;2022-12-05T17:02:10;2.86;79.81
67005;HTU21D;53920;51.094;5.902;2022-12-05T17:04:37;2.87;79.86
67005;HTU21D;53920;51.094;5.902;2022-12-05T17:07:03;2.91;79.69
67005;HTU21D;53920;51.094;5.902;2022-12-05T17:09:29;2.98;79.43
67005;HTU21D;53920;51.094;5.902;2022-12-05T17:12:11;2.98;79.45
67005;HTU21D;53920;51.094;5.902;2022-12-05T17:14:38;3.01;79.33
67005;HTU21D;53920;51.094;5.902;2022-12-05T17:17:11;2.99;79.38
67005;HTU21D;53920;51.094;5.902;2022-12-05T17:19:38;3.00;79.36
67005;HTU21D;53920;51.094;5.902;2022-12-05T17:22:04;2.98;79.46
67005;HTU21D;53920;51.094;5.902;2022-12-05T17:24:31;2.97;79.71
67005;HTU21D;53920;51.094;5.902;2022-12-05T17:26:57;2.96;79.77
67005;HTU21D;53920;51.094;5.902;2022-12-05T17:29:23;2.94;80.01
67005;HTU21D;53920;51.094;5.902;2022-12-05T17:31:49;2.89;80.25
67005;HTU21D;53920;51.094;5.902;2022-12-05T17:34:16;2.85;80.59
67005;HTU21D;53920;51.094;5.902;2022-12-05T17:36:43;2.85;80.77
67005;HTU21D;53920;51.094;5.902;2022-12-05T17:39:09;2.83;80.84
67005;HTU21D;53920;51.094;5.902;2022-12-05T17:41:36;2.85;81.10
67005;HTU21D;53920;51.094;5.902;2022-12-05T17:44:03;2.89;80.97
67005;HTU21D;53920;51.094;5.902;2022-12-05T17:46:29;2.88;81.04
67005;HTU21D;53920;51.094;5.902;2022-12-05T17:48:55;2.91;81.07
67005;HTU21D;53920;51.094;5.902;2022-12-05T17:51:22;3.00;80.92
67005;HTU21D;53920;51.094;5.902;2022-12-05T17:53:48;3.00;80.78
67005;HTU21D;53920;51.094;5.902;2022-12-05T17:56:14;3.01;80.86
67005;HTU21D;53920;51.094;5.902;2022-12-05T17:58:40;3.01;80.85
67005;HTU21D;53920;51.094;5.902;2022-12-05T18:01:13;3.00;80.91
67005;HTU21D;53920;51.094;5.902;2022-12-05T18:03:40;2.98;81.10
67005;HTU21D;53920;51.094;5.902;2022-12-05T18:06:06;2.97;81.24
67005;HTU21D;53920;51.094;5.902;2022-12-05T18:08:32;3.04;81.30
67005;HTU21D;53920;51.094;5.902;2022-12-05T18:10:59;3.02;81.22
67005;HTU21D;53920;51.094;5.902;2022-12-05T18:13:25;3.02;81.33
67005;HTU21D;53920;51.094;5.902;2022-12-05T18:15:56;3.03;81.29
67005;HTU21D;53920;51.094;5.902;2022-12-05T18:18:23;3.05;81.27
67005;HTU21D;53920;51.094;5.902;2022-12-05T18:20:52;3.08;81.36
67005;HTU21D;53920;51.094;5.902;2022-12-05T18:23:18;3.05;81.39
67005;HTU21D;53920;51.094;5.902;2022-12-05T18:25:44;3.05;81.46
67005;HTU21D;53920;51.094;5.902;2022-12-05T18:28:11;3.06;81.39
67005;HTU21D;53920;51.094;5.902;2022-12-05T18:30:41;3.09;81.49
67005;HTU21D;53920;51.094;5.902;2022-12-05T18:33:08;3.08;81.61
67005;HTU21D;53920;51.094;5.902;2022-12-05T18:35:39;3.05;81.70
67005;HTU21D;53920;51.094;5.902;2022-12-05T18:38:06;3.09;81.78
67005;HTU21D;53920;51.094;5.902;2022-12-05T18:40:32;3.11;81.70
67005;HTU21D;53920;51.094;5.902;2022-12-05T18:42:58;3.13;81.68
67005;HTU21D;53920;51.094;5.902;2022-12-05T18:45:25;3.15;81.79
67005;HTU21D;53920;51.094;5.902;2022-12-05T18:47:51;3.18;81.76
67005;HTU21D;53920;51.094;5.902;2022-12-05T18:50:18;3.21;81.78